createdAt,value
2023-04-18T00:01:21.580Z,28.42
2023-04-18T00:03:52.046Z,26.65
2023-04-18T00:06:22.222Z,25.35
2023-04-18T00:08:52.691Z,28.02
2023-04-18T00:11:21.716Z,30.52
2023-04-18T00:13:50.638Z,31.42
2023-04-18T00:16:19.765Z,27.30
2023-04-18T00:18:48.690Z,24.33
2023-04-18T00:21:17.920Z,23.42
2023-04-18T00:23:47.188Z,24.85
2023-04-18T00:26:17.704Z,28.17
2023-04-18T00:28:49.792Z,26.70
2023-04-18T00:31:20.013Z,25.75
2023-04-18T00:33:49.033Z,25.25
2023-04-18T00:36:17.786Z,24.73
2023-04-18T00:38:47.235Z,27.98
2023-04-18T00:41:18.448Z,27.35
2023-04-18T00:43:47.501Z,26.70
2023-04-18T00:46:16.539Z,26.08
2023-04-18T00:48:45.485Z,23.67
2023-04-18T00:51:17.673Z,26.50
2023-04-18T00:53:47.275Z,26.85
2023-04-18T00:56:17.807Z,32.22
2023-04-18T00:58:46.694Z,34.42
2023-04-18T01:01:16.248Z,26.08
2023-04-18T01:03:47.240Z,27.73
2023-04-18T01:06:17.191Z,30.98
2023-04-18T01:08:46.881Z,32.03
2023-04-18T01:11:17.156Z,25.95
2023-04-18T01:14:00.102Z,27.02
2023-04-18T01:16:32.902Z,27.63
2023-04-18T01:19:02.791Z,25.65
2023-04-18T01:21:34.005Z,29.08
2023-04-18T01:24:09.032Z,29.50
2023-04-18T01:26:38.249Z,28.77
2023-04-18T01:29:08.000Z,28.25
2023-04-18T01:31:37.614Z,30.08
2023-04-18T01:34:07.105Z,28.27
2023-04-18T01:36:37.349Z,28.98
2023-04-18T01:39:09.271Z,28.10
2023-04-18T01:41:38.270Z,27.90
2023-04-18T01:44:07.272Z,31.10
2023-04-18T01:46:36.656Z,26.75
2023-04-18T01:49:06.183Z,30.67
2023-04-18T01:51:35.159Z,28.77
2023-04-18T01:54:04.163Z,25.98
2023-04-18T01:56:34.616Z,32.50
2023-04-18T01:59:04.391Z,28.98
2023-04-18T02:01:33.513Z,31.42
2023-04-18T02:04:02.671Z,33.10
2023-04-18T02:06:31.944Z,29.17
2023-04-18T02:09:02.279Z,26.98
2023-04-18T02:11:33.306Z,29.58
2023-04-18T02:14:05.136Z,30.67
2023-04-18T02:16:34.112Z,32.28
2023-04-18T02:19:04.396Z,30.73
2023-04-18T02:21:33.234Z,30.02
2023-04-18T02:24:02.195Z,33.03
2023-04-18T02:26:30.998Z,29.08
2023-04-18T02:29:01.389Z,32.47
2023-04-18T02:31:32.154Z,30.98
2023-04-18T02:34:01.242Z,30.92
2023-04-18T02:36:31.168Z,32.83
2023-04-18T02:39:00.214Z,29.88
2023-04-18T02:41:29.183Z,31.30
2023-04-18T02:43:58.279Z,29.27
2023-04-18T02:46:28.833Z,28.67
2023-04-18T02:49:01.420Z,26.52
2023-04-18T02:51:30.934Z,33.53
2023-04-18T02:54:00.948Z,29.05
2023-04-18T02:56:40.203Z,31.00
2023-04-18T02:59:17.947Z,29.65
2023-04-18T03:02:02.425Z,32.15
2023-04-18T03:04:32.036Z,30.20
2023-04-18T03:07:03.886Z,28.27
2023-04-18T03:09:36.898Z,31.27
2023-04-18T03:12:12.963Z,27.65
2023-04-18T03:14:44.484Z,32.13
2023-04-18T03:17:16.578Z,27.33
2023-04-18T03:19:50.272Z,30.00
2023-04-18T03:22:21.947Z,27.10
2023-04-18T03:24:57.528Z,29.50
2023-04-18T03:27:42.870Z,28.98
2023-04-18T03:30:13.779Z,30.17
2023-04-18T03:32:46.898Z,27.55
2023-04-18T03:35:16.064Z,29.13
2023-04-18T03:37:44.906Z,26.42
2023-04-18T03:40:20.104Z,23.77
2023-04-18T03:42:51.456Z,27.15
2023-04-18T03:45:21.249Z,24.08
2023-04-18T03:47:51.769Z,22.33
2023-04-18T03:50:22.203Z,23.73
2023-04-18T03:52:52.243Z,29.27
2023-04-18T03:55:21.944Z,24.70
2023-04-18T03:57:51.112Z,30.42
2023-04-18T04:00:29.067Z,24.08
2023-04-18T04:03:05.136Z,26.95
2023-04-18T04:05:34.336Z,27.15
2023-04-18T04:08:03.298Z,23.73
2023-04-18T04:10:32.404Z,25.52
2023-04-18T04:13:01.292Z,25.25
2023-04-18T04:15:30.971Z,23.58
2023-04-18T04:18:09.095Z,25.10
2023-04-18T04:20:41.246Z,23.38
2023-04-18T04:23:16.826Z,24.73
2023-04-18T04:25:53.057Z,22.75
2023-04-18T04:28:46.533Z,21.63
2023-04-18T04:31:22.241Z,28.30
2023-04-18T04:33:53.979Z,23.88
2023-04-18T04:36:27.268Z,26.00
2023-04-18T04:38:58.625Z,25.73
2023-04-18T04:41:37.680Z,23.92
2023-04-18T04:44:08.001Z,25.42
2023-04-18T04:46:39.441Z,21.92
2023-04-18T04:49:15.324Z,19.58
2023-04-18T04:51:44.636Z,22.52
2023-04-18T04:54:14.236Z,18.60
2023-04-18T04:56:51.365Z,21.40
2023-04-18T04:59:21.604Z,20.90
2023-04-18T05:01:54.380Z,21.33
2023-04-18T05:04:25.988Z,22.63
2023-04-18T05:06:55.281Z,16.33
2023-04-18T05:09:24.076Z,19.20
2023-04-18T05:11:53.085Z,17.58
2023-04-18T05:14:22.177Z,17.98
2023-04-18T05:16:51.412Z,18.80
2023-04-18T05:19:20.645Z,17.85
2023-04-18T05:21:51.089Z,17.48
2023-04-18T05:24:20.383Z,19.58
2023-04-18T05:26:49.210Z,15.75
2023-04-18T05:29:18.166Z,19.17
2023-04-18T05:31:47.261Z,15.85
2023-04-18T05:34:16.394Z,20.05
2023-04-18T05:36:45.459Z,15.10
2023-04-18T05:39:15.679Z,17.63
2023-04-18T05:41:44.648Z,15.80
2023-04-18T05:44:13.753Z,14.63
2023-04-18T05:46:42.912Z,17.23
2023-04-18T05:49:11.755Z,17.25
2023-04-18T05:51:41.630Z,15.32
2023-04-18T05:54:10.673Z,15.18
2023-04-18T05:56:42.236Z,14.70
2023-04-18T05:59:11.351Z,13.40
2023-04-18T06:01:40.609Z,12.27
2023-04-18T06:04:12.989Z,14.50
2023-04-18T06:06:42.198Z,17.95
2023-04-18T06:09:11.336Z,13.57
2023-04-18T06:11:41.742Z,13.05
2023-04-18T06:14:10.675Z,14.40
2023-04-18T06:16:39.778Z,15.65
2023-04-18T06:19:08.831Z,11.15
2023-04-18T06:21:37.705Z,13.52
2023-04-18T06:24:06.934Z,14.40
2023-04-18T06:26:35.839Z,15.27
2023-04-18T06:29:06.172Z,14.30
2023-04-18T06:31:35.236Z,22.83
2023-04-18T06:34:04.387Z,14.90
2023-04-18T06:36:33.525Z,16.30
2023-04-18T06:39:02.595Z,11.10
2023-04-18T06:41:31.570Z,15.27
2023-04-18T06:44:14.597Z,13.88
2023-04-18T06:46:45.174Z,11.90
2023-04-18T06:49:14.258Z,12.77
2023-04-18T06:51:43.226Z,14.23
2023-04-18T06:54:12.327Z,13.65
2023-04-18T06:56:41.462Z,12.18
2023-04-18T06:59:10.722Z,11.90
2023-04-18T07:01:42.261Z,14.50
2023-04-18T07:04:12.873Z,10.68
2023-04-18T07:06:44.123Z,13.20
2023-04-18T07:09:16.044Z,13.02
2023-04-18T07:11:44.951Z,11.50
2023-04-18T07:14:14.228Z,10.77
2023-04-18T07:16:43.540Z,10.95
2023-04-18T07:19:13.876Z,11.68
2023-04-18T07:21:44.922Z,11.93
2023-04-18T07:24:14.218Z,10.68
2023-04-18T07:26:43.760Z,13.05
2023-04-18T07:29:12.847Z,11.27
2023-04-18T07:31:41.810Z,11.73
2023-04-18T07:34:11.736Z,12.05
2023-04-18T07:36:42.733Z,11.43
2023-04-18T07:39:11.678Z,16.05
2023-04-18T07:41:40.519Z,14.00
2023-04-18T07:44:09.546Z,11.82
2023-04-18T07:46:38.675Z,14.88
2023-04-18T07:49:07.808Z,12.40
2023-04-18T07:51:36.719Z,12.82
2023-04-18T07:54:07.440Z,11.65
2023-04-18T07:56:36.380Z,14.20
2023-04-18T07:59:05.442Z,11.38
2023-04-18T08:01:34.640Z,14.13
2023-04-18T08:04:04.119Z,15.15
2023-04-18T08:06:34.741Z,11.98
2023-04-18T08:09:05.697Z,16.67
2023-04-18T08:11:36.347Z,12.15
2023-04-18T08:14:05.333Z,12.05
2023-04-18T08:16:34.247Z,14.77
2023-04-18T08:19:03.088Z,12.00
2023-04-18T08:21:32.532Z,14.40
2023-04-18T08:24:01.585Z,13.48
2023-04-18T08:26:30.925Z,13.02
2023-04-18T08:29:01.293Z,12.82
2023-04-18T08:31:31.737Z,13.73
2023-04-18T08:34:02.545Z,14.75
2023-04-18T08:36:32.742Z,16.50
2023-04-18T08:39:01.867Z,12.48
2023-04-18T08:41:37.325Z,15.65
2023-04-18T08:44:08.247Z,12.55
2023-04-18T08:46:37.447Z,13.80
2023-04-18T08:49:08.523Z,13.55
2023-04-18T08:51:43.615Z,17.67
2023-04-18T08:54:12.885Z,13.52
2023-04-18T08:56:42.589Z,14.40
2023-04-18T08:59:14.066Z,14.50
2023-04-18T09:01:57.634Z,13.65
2023-04-18T09:04:38.387Z,13.30
2023-04-18T09:07:08.832Z,12.98
2023-04-18T09:10:19.479Z,12.48
2023-04-18T09:13:03.114Z,15.90
2023-04-18T09:15:34.572Z,19.48
2023-04-18T09:18:03.699Z,15.30
2023-04-18T09:20:40.036Z,12.38
2023-04-18T09:23:11.560Z,18.02
2023-04-18T09:25:48.286Z,12.57
2023-04-18T09:28:25.136Z,16.05
2023-04-18T09:30:56.261Z,58.03
2023-04-18T09:33:32.679Z,15.35
2023-04-18T09:36:19.784Z,16.35
2023-04-18T09:38:49.285Z,17.08
2023-04-18T09:41:21.373Z,12.10
2023-04-18T09:43:50.791Z,11.85
2023-04-18T09:46:22.697Z,13.82
2023-04-18T09:48:51.701Z,18.55
2023-04-18T09:51:20.914Z,17.75
2023-04-18T09:53:50.349Z,14.13
2023-04-18T09:56:26.843Z,17.27
2023-04-18T09:58:58.611Z,15.63
2023-04-18T10:01:29.976Z,14.25
2023-04-18T10:04:03.698Z,13.90
2023-04-18T10:06:34.703Z,16.20
2023-04-18T10:09:05.809Z,13.90
2023-04-18T10:11:35.063Z,14.27
2023-04-18T10:14:08.003Z,17.13
2023-04-18T10:16:39.493Z,14.98
2023-04-18T10:19:27.032Z,13.55
2023-04-18T10:21:57.065Z,16.00
2023-04-18T10:24:53.315Z,16.65
2023-04-18T10:27:57.371Z,16.23
2023-04-18T10:30:56.370Z,12.55
2023-04-18T10:33:32.226Z,16.52
2023-04-18T10:36:06.106Z,16.60
2023-04-18T10:38:35.380Z,14.93
2023-04-18T10:41:25.004Z,14.13
2023-04-18T10:44:18.380Z,14.52
2023-04-18T10:47:32.302Z,13.15
2023-04-18T10:50:06.828Z,13.07
2023-04-18T10:52:36.133Z,13.75
2023-04-18T10:55:21.257Z,12.48
2023-04-18T10:57:51.502Z,14.75
2023-04-18T11:00:21.912Z,11.38
2023-04-18T11:02:56.548Z,12.40
2023-04-18T11:05:30.673Z,10.35
2023-04-18T11:07:59.760Z,14.00
2023-04-18T11:10:29.560Z,13.05
2023-04-18T11:13:04.676Z,13.93
2023-04-18T11:15:33.656Z,11.80
2023-04-18T11:18:04.137Z,15.57
2023-04-18T11:20:41.178Z,12.10
2023-04-18T11:23:19.774Z,12.43
2023-04-18T11:25:52.011Z,12.70
2023-04-18T11:28:22.157Z,13.40
2023-04-18T11:30:51.522Z,12.38
2023-04-18T11:33:20.473Z,13.25
2023-04-18T11:35:50.741Z,11.93
2023-04-18T11:38:28.588Z,11.15
2023-04-18T11:40:57.701Z,22.85
2023-04-18T11:43:27.008Z,14.23
2023-04-18T11:45:57.011Z,12.48
2023-04-18T11:48:34.967Z,9.60
2023-04-18T11:51:05.999Z,10.88
2023-04-18T11:53:35.658Z,9.93
2023-04-18T11:56:05.683Z,11.38
2023-04-18T11:58:35.473Z,14.05
2023-04-18T12:01:18.212Z,17.20
2023-04-18T12:04:01.734Z,9.68
2023-04-18T12:06:50.434Z,9.65
2023-04-18T12:09:19.765Z,9.75
2023-04-18T12:11:59.219Z,8.93
2023-04-18T12:14:28.916Z,10.45
2023-04-18T12:16:58.063Z,11.25
2023-04-18T12:19:31.536Z,8.82
2023-04-18T12:22:03.347Z,11.10
2023-04-18T12:24:32.449Z,8.85
2023-04-18T12:27:02.062Z,13.82
2023-04-18T12:29:30.994Z,8.27
2023-04-18T12:32:00.035Z,12.18
2023-04-18T12:34:29.219Z,10.48
2023-04-18T12:36:58.225Z,10.18
2023-04-18T12:39:28.425Z,10.90
2023-04-18T12:41:57.718Z,10.48
2023-04-18T12:44:26.566Z,8.80
2023-04-18T12:46:55.634Z,8.65
2023-04-18T12:49:24.554Z,9.63
2023-04-18T12:51:53.405Z,8.10
2023-04-18T12:54:22.289Z,10.10
2023-04-18T12:56:52.630Z,9.38
2023-04-18T12:59:21.666Z,7.78
2023-04-18T13:01:50.483Z,7.30
2023-04-18T13:04:19.689Z,6.88
2023-04-18T13:06:48.663Z,7.47
2023-04-18T13:09:17.707Z,6.35
2023-04-18T13:11:48.268Z,8.73
2023-04-18T13:14:19.618Z,6.15
2023-04-18T13:16:48.770Z,6.82
2023-04-18T13:19:17.776Z,8.95
2023-04-18T13:21:48.435Z,9.93
2023-04-18T13:24:18.564Z,6.45
2023-04-18T13:26:47.821Z,6.53
2023-04-18T13:29:16.596Z,9.65
2023-04-18T13:31:46.844Z,7.65
2023-04-18T13:34:16.016Z,8.02
2023-04-18T13:36:44.871Z,7.72
2023-04-18T13:39:15.364Z,7.75
2023-04-18T13:41:44.447Z,10.13
2023-04-18T13:44:13.176Z,13.35
2023-04-18T13:46:42.166Z,10.05
2023-04-18T13:49:12.584Z,10.45
2023-04-18T13:51:42.802Z,8.85
2023-04-18T13:54:14.715Z,10.75
2023-04-18T13:56:43.761Z,10.02
2023-04-18T13:59:12.730Z,10.02
2023-04-18T14:01:41.911Z,12.30
2023-04-18T14:04:12.492Z,19.40
2023-04-18T14:06:41.891Z,13.82
2023-04-18T14:09:10.798Z,11.85
2023-04-18T14:11:39.756Z,11.82
2023-04-18T14:14:08.684Z,12.32
2023-04-18T14:16:37.775Z,21.08
2023-04-18T14:19:06.667Z,12.82
2023-04-18T14:21:37.089Z,10.88
2023-04-18T14:24:07.369Z,11.05
2023-04-18T14:26:36.308Z,11.23
2023-04-18T14:29:05.427Z,11.52
2023-04-18T14:31:34.434Z,11.85
2023-04-18T14:34:03.469Z,11.70
2023-04-18T14:36:32.833Z,12.20
2023-04-18T14:39:03.691Z,10.68
2023-04-18T14:41:33.121Z,16.23
2023-04-18T14:44:02.260Z,10.25
2023-04-18T14:46:31.527Z,10.73
2023-04-18T14:49:01.532Z,10.90
2023-04-18T14:51:31.228Z,11.98
2023-04-18T14:54:00.563Z,13.23
2023-04-18T14:56:31.292Z,11.05
2023-04-18T14:59:00.463Z,10.32
2023-04-18T15:01:29.565Z,12.63
2023-04-18T15:03:59.544Z,12.75
2023-04-18T15:06:28.616Z,11.77
2023-04-18T15:08:57.395Z,10.02
2023-04-18T15:11:27.297Z,14.23
2023-04-18T15:13:58.126Z,11.00
2023-04-18T15:16:26.963Z,12.02
2023-04-18T15:18:55.976Z,10.38
2023-04-18T15:21:24.873Z,10.05
2023-04-18T15:23:53.694Z,11.93
2023-04-18T15:26:22.589Z,12.68
2023-04-18T15:28:51.390Z,11.15
2023-04-18T15:31:21.976Z,12.18
2023-04-18T15:33:51.000Z,12.02
2023-04-18T15:36:19.800Z,11.35
2023-04-18T15:38:48.724Z,11.55
2023-04-18T15:41:17.626Z,11.27
2023-04-18T15:43:46.879Z,11.65
2023-04-18T15:46:16.086Z,12.43
2023-04-18T15:48:46.341Z,17.73
2023-04-18T15:51:15.333Z,13.38
2023-04-18T15:53:44.250Z,14.68
2023-04-18T15:56:13.858Z,14.00
2023-04-18T15:58:42.941Z,13.15
2023-04-18T16:01:16.072Z,12.88
2023-04-18T16:03:47.055Z,13.25
2023-04-18T16:06:16.918Z,12.88
2023-04-18T16:08:45.755Z,12.07
2023-04-18T16:11:15.485Z,15.88
2023-04-18T16:13:45.053Z,14.38
2023-04-18T16:16:14.085Z,12.40
2023-04-18T16:18:43.187Z,12.10
2023-04-18T16:21:15.913Z,12.80
2023-04-18T16:23:46.005Z,14.10
2023-04-18T16:26:14.872Z,16.15
2023-04-18T16:28:48.244Z,13.38
2023-04-18T16:31:17.272Z,13.55
2023-04-18T16:33:46.489Z,15.13
2023-04-18T16:36:16.719Z,13.80
2023-04-18T16:38:45.633Z,15.80
2023-04-18T16:41:14.468Z,15.50
2023-04-18T16:43:44.095Z,12.75
2023-04-18T16:46:13.851Z,12.40
2023-04-18T16:48:42.728Z,15.60
2023-04-18T16:51:13.197Z,13.65
2023-04-18T16:53:44.592Z,13.35
2023-04-18T16:56:14.676Z,14.82
2023-04-18T16:58:43.470Z,15.25
2023-04-18T17:01:12.505Z,14.57
2023-04-18T17:03:42.477Z,13.63
2023-04-18T17:06:11.784Z,17.33
2023-04-18T17:08:42.370Z,18.05
2023-04-18T17:11:11.587Z,13.48
2023-04-18T17:13:40.489Z,16.60
2023-04-18T17:16:10.820Z,14.15
2023-04-18T17:18:39.848Z,14.40
2023-04-18T17:21:12.354Z,22.63
2023-04-18T17:23:42.675Z,18.90
2023-04-18T17:26:11.745Z,14.98
2023-04-18T17:28:40.830Z,16.10
2023-04-18T17:31:11.538Z,15.93
2023-04-18T17:33:41.098Z,17.52
2023-04-18T17:36:12.564Z,18.38
2023-04-18T17:38:48.921Z,16.52
2023-04-18T17:41:18.858Z,19.42
2023-04-18T17:43:48.598Z,17.92
2023-04-18T17:46:17.712Z,19.98
2023-04-18T17:48:47.068Z,18.45
2023-04-18T17:51:16.746Z,17.63
2023-04-18T17:53:49.228Z,17.27
2023-04-18T17:56:18.756Z,15.70
2023-04-18T17:58:47.620Z,18.73
2023-04-18T18:01:17.210Z,19.42
2023-04-18T18:03:47.070Z,17.67
2023-04-18T18:06:16.739Z,18.38
2023-04-18T18:08:45.852Z,17.05
2023-04-18T18:11:16.331Z,16.50
2023-04-18T18:13:46.774Z,16.52
2023-04-18T18:16:16.097Z,23.67
2023-04-18T18:18:45.378Z,19.33
2023-04-18T18:21:14.437Z,21.83
2023-04-18T18:23:43.622Z,21.40
2023-04-18T18:26:13.221Z,18.17
2023-04-18T18:28:43.735Z,18.90
2023-04-18T18:31:12.460Z,19.70
2023-04-18T18:33:41.625Z,21.70
2023-04-18T18:36:10.471Z,20.23
2023-04-18T18:38:39.350Z,21.05
2023-04-18T18:41:08.629Z,22.88
2023-04-18T18:43:37.648Z,21.65
2023-04-18T18:46:08.520Z,24.13
2023-04-18T18:48:39.100Z,23.13
2023-04-18T18:51:08.384Z,24.17
2023-04-18T18:53:39.655Z,22.98
2023-04-18T18:56:09.842Z,26.02
2023-04-18T18:58:39.283Z,23.52
2023-04-18T19:01:11.363Z,26.60
2023-04-18T19:03:59.957Z,25.40
2023-04-18T19:06:29.007Z,25.67
2023-04-18T19:08:58.092Z,23.55
2023-04-18T19:11:27.246Z,24.83
2023-04-18T19:13:56.513Z,26.02
2023-04-18T19:16:28.251Z,24.65
2023-04-18T19:18:57.260Z,24.50
2023-04-18T19:21:26.477Z,25.38
2023-04-18T19:23:55.549Z,24.95
2023-04-18T19:26:24.528Z,22.30
2023-04-18T19:28:54.602Z,26.00
2023-04-18T19:31:23.721Z,24.63
2023-04-18T19:33:53.993Z,25.35
2023-04-18T19:36:23.667Z,25.00
2023-04-18T19:38:52.656Z,27.05
2023-04-18T19:41:21.704Z,23.80
2023-04-18T19:43:52.525Z,22.52
2023-04-18T19:46:21.487Z,24.90
2023-04-18T19:48:50.646Z,21.38
2023-04-18T19:51:21.194Z,24.05
2023-04-18T19:53:50.284Z,22.77
2023-04-18T19:56:19.461Z,23.92
2023-04-18T19:58:49.212Z,24.10
2023-04-18T20:01:19.667Z,22.27
2023-04-18T20:03:49.444Z,20.65
2023-04-18T20:06:20.439Z,20.35
2023-04-18T20:08:49.527Z,23.30
2023-04-18T20:11:18.406Z,23.15
2023-04-18T20:13:47.608Z,22.17
2023-04-18T20:16:17.004Z,21.52
2023-04-18T20:18:47.659Z,24.58
2023-04-18T20:21:16.866Z,22.40
2023-04-18T20:23:47.152Z,20.63
2023-04-18T20:26:16.266Z,22.58
2023-04-18T20:28:45.342Z,24.13
2023-04-18T20:31:14.247Z,22.45
2023-04-18T20:33:43.301Z,21.83
2023-04-18T20:36:14.155Z,23.60
2023-04-18T20:38:44.515Z,21.33
2023-04-18T20:41:18.254Z,24.02
2023-04-18T20:43:47.514Z,24.23
2023-04-18T20:46:16.600Z,23.17
2023-04-18T20:48:45.556Z,20.77
2023-04-18T20:51:14.515Z,23.30
2023-04-18T20:53:43.346Z,23.38
2023-04-18T20:56:12.213Z,21.02
2023-04-18T20:58:43.196Z,26.55
2023-04-18T21:01:12.428Z,26.05
2023-04-18T21:03:41.972Z,21.20
2023-04-18T21:06:11.443Z,24.30
2023-04-18T21:08:40.664Z,20.88
2023-04-18T21:11:09.801Z,22.63
2023-04-18T21:13:38.741Z,22.90
2023-04-18T21:16:10.345Z,22.77
2023-04-18T21:18:39.552Z,22.38
2023-04-18T21:21:09.112Z,23.60
2023-04-18T21:23:45.469Z,24.75
2023-04-18T21:26:14.952Z,23.38
2023-04-18T21:28:57.690Z,25.92
2023-04-18T21:31:30.341Z,22.17
2023-04-18T21:34:00.690Z,23.05
2023-04-18T21:36:31.038Z,24.50
2023-04-18T21:39:01.683Z,23.90
2023-04-18T21:41:30.863Z,23.90
2023-04-18T21:43:59.737Z,23.73
2023-04-18T21:46:30.058Z,23.48
2023-04-18T21:48:59.855Z,23.80
2023-04-18T21:51:28.743Z,21.70
2023-04-18T21:53:59.017Z,23.20
2023-04-18T21:56:27.938Z,23.20
2023-04-18T21:58:56.862Z,21.00
2023-04-18T22:01:25.820Z,19.85
2023-04-18T22:03:56.426Z,22.88
2023-04-18T22:06:26.090Z,24.50
2023-04-18T22:08:54.897Z,25.23
2023-04-18T22:11:24.735Z,29.08
2023-04-18T22:13:54.861Z,23.13
2023-04-18T22:16:24.463Z,23.33
2023-04-18T22:18:53.989Z,25.75
2023-04-18T22:21:24.508Z,22.33
2023-04-18T22:23:53.587Z,25.23
2023-04-18T22:26:22.386Z,22.70
2023-04-18T22:28:51.444Z,21.13
2023-04-18T22:31:20.519Z,21.50
2023-04-18T22:33:49.497Z,24.33
2023-04-18T22:36:18.349Z,22.63
2023-04-18T22:38:48.572Z,25.55
2023-04-18T22:41:17.545Z,25.67
2023-04-18T22:43:46.421Z,21.40
2023-04-18T22:46:15.414Z,21.25
2023-04-18T22:48:44.886Z,23.35
2023-04-18T22:51:15.001Z,24.23
2023-04-18T22:53:44.121Z,24.17
2023-04-18T22:56:14.410Z,24.88
2023-04-18T22:58:43.237Z,24.85
2023-04-18T23:01:15.053Z,22.85
2023-04-18T23:03:44.037Z,23.40
2023-04-18T23:06:13.098Z,23.77
2023-04-18T23:08:42.119Z,23.60
2023-04-18T23:11:11.560Z,23.40
2023-04-18T23:13:41.751Z,24.67
2023-04-18T23:16:10.601Z,23.35
2023-04-18T23:18:39.884Z,24.15
2023-04-18T23:21:08.903Z,25.23
2023-04-18T23:23:37.626Z,22.20
2023-04-18T23:26:14.017Z,22.83
2023-04-18T23:28:44.440Z,23.85
2023-04-18T23:31:13.483Z,22.63
2023-04-18T23:33:42.503Z,23.67
2023-04-18T23:36:11.966Z,26.42
2023-04-18T23:38:41.920Z,25.08
2023-04-18T23:41:10.728Z,24.73
2023-04-18T23:43:39.736Z,21.88
2023-04-18T23:46:09.990Z,21.00
2023-04-18T23:48:39.070Z,23.25
2023-04-18T23:51:07.957Z,23.65
2023-04-18T23:53:36.720Z,22.83
2023-04-18T23:56:05.907Z,24.02
2023-04-18T23:58:34.613Z,23.63
